createdAt,value
2023-01-09T00:00:56.950Z,49.28
2023-01-09T00:03:23.903Z,49.08
2023-01-09T00:05:52.250Z,50.95
2023-01-09T00:08:19.447Z,50.65
2023-01-09T00:10:46.668Z,48.13
2023-01-09T00:13:14.038Z,52.53
2023-01-09T00:15:41.695Z,50.97
2023-01-09T00:18:08.601Z,46.40
2023-01-09T00:20:36.413Z,47.65
2023-01-09T00:23:03.868Z,49.25
2023-01-09T00:25:30.799Z,47.53
2023-01-09T00:27:57.740Z,46.70
2023-01-09T00:30:24.952Z,47.05
2023-01-09T00:32:51.984Z,45.42
2023-01-09T00:35:19.203Z,47.63
2023-01-09T00:37:46.476Z,45.22
2023-01-09T00:40:15.140Z,44.75
2023-01-09T00:42:43.189Z,44.92
2023-01-09T00:45:20.072Z,48.03
2023-01-09T00:47:51.994Z,47.03
2023-01-09T00:50:22.435Z,42.28
2023-01-09T00:52:51.122Z,44.70
2023-01-09T00:55:18.049Z,44.90
2023-01-09T00:57:45.097Z,42.13
2023-01-09T01:00:12.511Z,45.83
2023-01-09T01:02:39.453Z,47.75
2023-01-09T01:05:25.680Z,46.83
2023-01-09T01:07:52.696Z,47.28
2023-01-09T01:10:22.531Z,41.40
2023-01-09T01:12:50.757Z,45.53
2023-01-09T01:15:18.138Z,47.83
2023-01-09T01:17:45.079Z,49.35
2023-01-09T01:20:16.127Z,47.20
2023-01-09T01:22:43.205Z,52.03
2023-01-09T01:25:11.289Z,46.58
2023-01-09T01:27:38.404Z,48.63
2023-01-09T01:30:07.549Z,49.90
2023-01-09T01:32:34.629Z,51.60
2023-01-09T01:35:01.565Z,47.35
2023-01-09T01:37:28.442Z,50.10
2023-01-09T01:39:55.295Z,47.65
2023-01-09T01:42:22.386Z,45.30
2023-01-09T01:45:13.817Z,52.42
2023-01-09T01:47:45.699Z,39.42
2023-01-09T01:53:05.421Z,45.45
2023-01-09T01:55:33.986Z,46.72
2023-01-09T01:58:03.059Z,43.92
2023-01-09T02:00:34.435Z,45.47
2023-01-09T02:03:02.235Z,47.88
2023-01-09T02:05:29.591Z,45.55
2023-01-09T02:07:56.577Z,46.08
2023-01-09T02:10:23.843Z,46.70
2023-01-09T02:12:51.084Z,48.95
2023-01-09T02:15:19.079Z,47.70
2023-01-09T02:18:22.595Z,46.70
2023-01-09T02:21:15.558Z,48.80
2023-01-09T02:24:20.292Z,43.75
2023-01-09T02:26:52.194Z,41.45
2023-01-09T02:32:16.880Z,44.30
2023-01-09T02:35:05.901Z,45.00
2023-01-09T02:37:44.874Z,45.03
2023-01-09T02:40:30.454Z,46.97
2023-01-09T02:42:59.178Z,45.00
2023-01-09T02:45:26.292Z,44.85
2023-01-09T02:47:53.495Z,44.88
2023-01-09T02:50:23.705Z,44.38
2023-01-09T02:53:28.055Z,47.83
2023-01-09T02:56:05.361Z,42.70
2023-01-09T02:59:00.931Z,42.72
2023-01-09T03:01:55.238Z,45.38
2023-01-09T03:04:38.843Z,44.22
2023-01-09T03:07:27.442Z,45.42
2023-01-09T03:09:59.241Z,47.03
2023-01-09T03:14:57.955Z,45.75
2023-01-09T03:17:32.329Z,46.65
2023-01-09T03:20:01.735Z,45.75
2023-01-09T03:22:28.596Z,43.92
2023-01-09T03:24:55.683Z,39.83
2023-01-09T03:27:22.615Z,47.65
2023-01-09T03:29:49.913Z,52.50
2023-01-09T03:32:17.157Z,50.30
2023-01-09T03:34:44.097Z,49.90
2023-01-09T03:37:11.245Z,46.85
2023-01-09T03:39:38.137Z,51.95
2023-01-09T03:42:05.324Z,49.53
2023-01-09T03:44:32.207Z,49.88
2023-01-09T03:46:59.155Z,42.22
2023-01-09T03:49:26.045Z,48.75
2023-01-09T03:51:53.067Z,49.13
2023-01-09T03:54:19.993Z,49.20
2023-01-09T03:56:47.036Z,54.72
2023-01-09T03:59:13.917Z,51.72
2023-01-09T04:01:41.139Z,34.05
2023-01-09T04:04:08.208Z,52.75
2023-01-09T04:06:35.282Z,53.95
2023-01-09T04:09:02.237Z,57.55
2023-01-09T04:11:29.224Z,51.05
2023-01-09T04:13:56.119Z,55.70
2023-01-09T04:16:23.139Z,53.78
2023-01-09T04:18:50.056Z,57.35
2023-01-09T04:21:17.283Z,58.72
2023-01-09T04:23:45.500Z,55.85
2023-01-09T04:26:12.438Z,59.03
2023-01-09T04:28:39.477Z,56.10
2023-01-09T04:31:06.494Z,53.90
2023-01-09T04:33:33.616Z,59.83
2023-01-09T04:36:00.843Z,59.42
2023-01-09T04:38:27.769Z,59.78
2023-01-09T04:40:54.904Z,59.33
2023-01-09T04:43:21.842Z,54.13
2023-01-09T04:45:48.897Z,50.35
2023-01-09T04:48:15.899Z,57.10
2023-01-09T04:50:43.043Z,58.80
2023-01-09T04:53:10.099Z,58.38
2023-01-09T04:55:37.182Z,57.85
2023-01-09T04:58:04.278Z,59.03
2023-01-09T05:00:31.325Z,57.40
2023-01-09T05:02:58.420Z,58.35
2023-01-09T05:05:25.819Z,60.05
2023-01-09T05:07:52.726Z,58.40
2023-01-09T05:10:19.893Z,59.53
2023-01-09T05:12:47.071Z,58.83
2023-01-09T05:15:13.960Z,58.55
2023-01-09T05:17:40.979Z,67.00
2023-01-09T05:20:08.446Z,57.70
2023-01-09T05:22:35.599Z,62.42
2023-01-09T05:25:02.562Z,58.08
2023-01-09T05:27:30.818Z,57.13
2023-01-09T05:29:57.760Z,63.28
2023-01-09T05:32:24.727Z,65.38
2023-01-09T05:34:51.637Z,64.60
2023-01-09T05:37:18.619Z,58.88
2023-01-09T05:39:45.577Z,63.55
2023-01-09T05:42:12.600Z,59.20
2023-01-09T05:44:39.512Z,56.58
2023-01-09T05:47:06.609Z,56.80
2023-01-09T05:49:33.611Z,57.17
2023-01-09T05:52:00.606Z,60.00
2023-01-09T05:54:27.523Z,54.40
2023-01-09T05:56:54.557Z,56.20
2023-01-09T05:59:21.471Z,57.05
2023-01-09T06:01:48.561Z,58.03
2023-01-09T06:04:15.743Z,68.85
2023-01-09T06:06:42.764Z,59.80
2023-01-09T06:09:09.844Z,55.53
2023-01-09T06:11:38.445Z,61.42
2023-01-09T06:14:05.961Z,58.67
2023-01-09T06:16:33.054Z,56.60
2023-01-09T06:19:00.022Z,59.08
2023-01-09T06:21:29.375Z,55.05
2023-01-09T06:23:57.503Z,55.78
2023-01-09T06:26:25.662Z,57.67
2023-01-09T06:28:55.690Z,56.85
2023-01-09T06:31:23.844Z,58.00
2023-01-09T06:33:51.275Z,53.95
2023-01-09T06:36:18.275Z,57.25
2023-01-09T06:38:45.259Z,53.97
2023-01-09T06:41:12.465Z,48.67
2023-01-09T06:43:39.595Z,53.80
2023-01-09T06:46:06.739Z,55.42
2023-01-09T06:48:34.252Z,57.22
2023-01-09T06:51:01.362Z,57.33
2023-01-09T06:53:28.411Z,57.00
2023-01-09T06:55:55.339Z,53.47
2023-01-09T06:58:22.283Z,57.85
2023-01-09T07:00:49.672Z,57.80
2023-01-09T07:03:21.522Z,57.00
2023-01-09T07:05:49.496Z,56.33
2023-01-09T07:08:17.017Z,54.58
2023-01-09T07:10:44.795Z,57.88
2023-01-09T07:13:12.202Z,56.03
2023-01-09T07:15:39.560Z,50.30
2023-01-09T07:18:06.697Z,53.60
2023-01-09T07:20:34.013Z,53.30
2023-01-09T07:23:01.103Z,50.72
2023-01-09T07:25:28.094Z,50.05
2023-01-09T07:27:55.280Z,53.03
2023-01-09T07:30:22.345Z,54.17
2023-01-09T07:32:49.560Z,50.88
2023-01-09T07:35:16.835Z,52.33
2023-01-09T07:37:44.019Z,53.97
2023-01-09T07:40:11.576Z,49.67
2023-01-09T07:42:38.760Z,52.28
2023-01-09T07:45:06.578Z,52.15
2023-01-09T07:47:33.656Z,53.03
2023-01-09T07:50:00.752Z,55.38
2023-01-09T07:52:28.204Z,51.00
2023-01-09T07:54:55.335Z,52.10
2023-01-09T07:57:22.476Z,50.88
2023-01-09T07:59:49.506Z,51.45
2023-01-09T08:02:18.295Z,51.90
2023-01-09T08:04:45.440Z,51.75
2023-01-09T08:07:12.420Z,53.70
2023-01-09T08:09:39.549Z,53.20
2023-01-09T08:12:06.751Z,52.35
2023-01-09T08:14:33.935Z,53.38
2023-01-09T08:17:01.094Z,53.42
2023-01-09T08:19:28.182Z,54.95
2023-01-09T08:21:55.597Z,52.17
2023-01-09T08:24:22.716Z,52.00
2023-01-09T08:26:49.717Z,52.28
2023-01-09T08:29:16.919Z,53.97
2023-01-09T08:31:44.279Z,50.80
2023-01-09T08:34:11.434Z,49.95
2023-01-09T08:36:39.059Z,53.55
2023-01-09T08:39:06.095Z,52.30
2023-01-09T08:41:51.999Z,50.67
2023-01-09T08:44:37.633Z,52.20
2023-01-09T08:47:08.317Z,51.67
2023-01-09T08:49:37.738Z,51.10
2023-01-09T08:52:06.221Z,43.58
2023-01-09T08:54:33.704Z,54.42
2023-01-09T08:57:00.870Z,55.65
2023-01-09T08:59:27.997Z,55.58
2023-01-09T09:01:55.304Z,55.75
2023-01-09T09:04:23.094Z,54.42
2023-01-09T09:06:50.062Z,56.60
2023-01-09T09:09:17.282Z,54.75
2023-01-09T09:11:44.236Z,54.40
2023-01-09T09:14:29.879Z,55.17
2023-01-09T09:16:56.995Z,58.17
2023-01-09T09:19:23.877Z,53.42
2023-01-09T09:21:50.955Z,53.30
2023-01-09T09:24:18.051Z,54.53
2023-01-09T09:26:45.915Z,55.72
2023-01-09T09:29:13.050Z,56.63
2023-01-09T09:31:40.049Z,57.20
2023-01-09T09:34:07.564Z,56.95
2023-01-09T09:36:34.729Z,55.92
2023-01-09T09:39:02.928Z,56.80
2023-01-09T09:42:14.723Z,58.85
2023-01-09T09:45:03.785Z,57.05
2023-01-09T09:47:43.479Z,58.53
2023-01-09T09:50:28.407Z,60.47
2023-01-09T09:53:19.575Z,61.83
2023-01-09T09:55:49.018Z,58.58
2023-01-09T09:58:28.929Z,59.63
2023-01-09T10:00:56.410Z,60.65
2023-01-09T10:03:36.884Z,59.58
2023-01-09T10:06:13.416Z,60.85
2023-01-09T10:08:58.650Z,58.40
2023-01-09T10:12:08.598Z,59.70
2023-01-09T10:14:35.904Z,59.08
2023-01-09T10:17:54.245Z,60.05
2023-01-09T10:20:59.208Z,53.22
2023-01-09T10:23:38.376Z,60.50
2023-01-09T10:26:11.376Z,60.53
2023-01-09T10:28:41.318Z,57.42
2023-01-09T10:31:30.224Z,63.13
2023-01-09T10:34:09.658Z,56.95
2023-01-09T10:37:03.185Z,61.03
2023-01-09T10:39:42.418Z,60.58
2023-01-09T10:42:38.615Z,63.35
2023-01-09T10:45:27.298Z,65.85
2023-01-09T10:48:00.753Z,68.65
2023-01-09T10:50:32.957Z,79.25
2023-01-09T10:53:02.518Z,67.72
2023-01-09T10:55:39.294Z,62.53
2023-01-09T10:58:18.533Z,64.25
2023-01-09T11:00:47.095Z,60.15
2023-01-09T11:03:18.901Z,62.70
2023-01-09T11:08:35.716Z,64.70
2023-01-09T11:11:03.797Z,58.17
2023-01-09T11:13:33.386Z,57.88
2023-01-09T11:16:24.156Z,57.92
2023-01-09T11:18:53.747Z,59.17
2023-01-09T11:21:40.779Z,58.30
2023-01-09T11:24:21.343Z,56.55
2023-01-09T11:26:53.359Z,61.53
2023-01-09T11:29:24.653Z,57.88
2023-01-09T11:32:02.044Z,55.83
2023-01-09T11:34:31.878Z,59.60
2023-01-09T11:37:25.959Z,58.17
2023-01-09T11:39:53.116Z,59.67
2023-01-09T11:42:43.535Z,62.45
2023-01-09T11:45:31.962Z,60.05
2023-01-09T11:47:59.259Z,62.97
2023-01-09T11:50:28.663Z,66.07
2023-01-09T11:53:15.400Z,63.72
2023-01-09T11:55:44.117Z,60.67
2023-01-09T11:58:19.437Z,63.47
2023-01-09T12:01:11.264Z,62.92
2023-01-09T12:03:53.220Z,58.95
2023-01-09T12:06:42.448Z,58.88
2023-01-09T12:09:42.222Z,59.35
2023-01-09T12:12:18.582Z,58.38
2023-01-09T12:15:10.198Z,58.03
2023-01-09T12:18:23.788Z,58.13
2023-01-09T12:20:55.638Z,57.38
2023-01-09T12:26:24.535Z,56.42
2023-01-09T12:29:03.638Z,56.33
2023-01-09T12:32:04.856Z,57.58
2023-01-09T12:35:00.526Z,54.67
2023-01-09T12:37:49.015Z,54.30
2023-01-09T12:40:16.211Z,54.08
2023-01-09T12:42:51.880Z,56.30
2023-01-09T12:45:30.578Z,56.53
2023-01-09T12:48:27.026Z,53.05
2023-01-09T12:50:56.683Z,50.30
2023-01-09T12:54:08.242Z,51.97
2023-01-09T12:56:47.896Z,50.90
2023-01-09T12:59:22.878Z,48.50
2023-01-09T13:01:50.284Z,48.33
2023-01-09T13:04:26.297Z,49.13
2023-01-09T13:06:58.914Z,50.83
2023-01-09T13:09:48.217Z,49.90
2023-01-09T13:12:21.489Z,51.20
2023-01-09T13:15:16.439Z,52.10
2023-01-09T13:17:47.285Z,52.40
2023-01-09T13:20:26.051Z,52.72
2023-01-09T13:22:54.289Z,50.10
2023-01-09T13:25:38.525Z,51.17
2023-01-09T13:28:24.233Z,50.83
2023-01-09T13:31:06.157Z,50.83
2023-01-09T13:33:36.337Z,51.50
2023-01-09T13:36:04.358Z,53.30
2023-01-09T13:38:34.236Z,49.75
2023-01-09T13:41:36.158Z,47.35
2023-01-09T13:44:20.000Z,48.30
2023-01-09T13:46:49.636Z,49.55
2023-01-09T13:49:42.479Z,48.55
2023-01-09T13:52:31.232Z,46.83
2023-01-09T13:54:58.968Z,48.85
2023-01-09T13:57:32.900Z,49.95
2023-01-09T14:00:19.877Z,47.70
2023-01-09T14:02:47.102Z,47.42
2023-01-09T14:05:24.127Z,48.60
2023-01-09T14:08:21.695Z,46.20
2023-01-09T14:11:03.234Z,48.85
2023-01-09T14:13:38.586Z,49.08
2023-01-09T14:16:27.260Z,46.33
2023-01-09T14:19:18.152Z,46.38
2023-01-09T14:21:48.800Z,46.03
2023-01-09T14:24:28.274Z,45.42
2023-01-09T14:26:58.067Z,46.42
2023-01-09T14:29:45.421Z,44.30
2023-01-09T14:32:26.628Z,44.13
2023-01-09T14:35:15.674Z,46.23
2023-01-09T14:37:43.334Z,47.03
2023-01-09T14:40:22.932Z,46.13
2023-01-09T14:42:54.815Z,44.95
2023-01-09T14:48:00.616Z,40.50
2023-01-09T14:50:51.303Z,45.80
2023-01-09T14:53:28.313Z,46.65
2023-01-09T14:56:06.087Z,45.97
2023-01-09T14:58:34.628Z,46.03
2023-01-09T15:01:10.812Z,45.78
2023-01-09T15:03:51.716Z,45.53
2023-01-09T15:06:25.029Z,47.67
2023-01-09T15:09:22.996Z,47.30
2023-01-09T15:11:50.676Z,47.78
2023-01-09T15:14:30.659Z,50.28
2023-01-09T15:16:58.448Z,46.75
2023-01-09T15:19:25.680Z,47.80
2023-01-09T15:22:04.841Z,49.03
2023-01-09T15:24:34.680Z,49.00
2023-01-09T15:27:05.929Z,49.05
2023-01-09T15:29:33.133Z,48.65
2023-01-09T15:32:20.598Z,46.00
2023-01-09T15:34:48.843Z,47.35
2023-01-09T15:37:38.669Z,47.17
2023-01-09T15:40:08.584Z,48.17
2023-01-09T15:42:57.847Z,48.60
2023-01-09T15:45:24.992Z,51.15
2023-01-09T15:47:52.657Z,49.10
2023-01-09T15:50:26.816Z,48.67
2023-01-09T15:52:55.400Z,49.58
2023-01-09T15:55:35.457Z,49.85
2023-01-09T15:58:04.437Z,50.20
2023-01-09T16:00:41.687Z,50.80
2023-01-09T16:03:17.031Z,50.17
2023-01-09T16:05:46.084Z,50.75
2023-01-09T16:08:40.424Z,50.50
2023-01-09T16:11:10.881Z,50.90
2023-01-09T16:13:43.301Z,53.10
2023-01-09T16:16:10.494Z,52.38
2023-01-09T16:18:39.706Z,53.25
2023-01-09T16:21:12.684Z,52.90
2023-01-09T16:23:51.792Z,54.05
2023-01-09T16:26:22.054Z,54.13
2023-01-09T16:28:49.067Z,53.22
2023-01-09T16:31:29.597Z,54.85
2023-01-09T16:34:04.469Z,54.10
2023-01-09T16:36:31.571Z,52.40
2023-01-09T16:39:01.080Z,53.00
2023-01-09T16:41:46.703Z,54.22
2023-01-09T16:44:14.237Z,55.80
2023-01-09T16:46:45.063Z,54.53
2023-01-09T16:49:27.228Z,53.65
2023-01-09T16:51:55.040Z,55.00
2023-01-09T16:54:21.919Z,61.83
2023-01-09T16:56:50.732Z,63.83
2023-01-09T16:59:26.561Z,62.75
2023-01-09T17:01:54.652Z,58.88
2023-01-09T17:04:23.800Z,55.72
2023-01-09T17:06:51.538Z,59.00
2023-01-09T17:09:20.238Z,57.40
2023-01-09T17:11:47.276Z,58.28
2023-01-09T17:14:14.794Z,59.95
2023-01-09T17:16:48.585Z,58.50
2023-01-09T17:19:18.721Z,64.20
2023-01-09T17:21:46.022Z,64.53
2023-01-09T17:24:31.353Z,62.05
2023-01-09T17:27:17.328Z,65.43
2023-01-09T17:29:44.782Z,66.53
2023-01-09T17:32:17.393Z,66.88
2023-01-09T17:34:44.647Z,74.68
2023-01-09T17:37:16.359Z,77.85
2023-01-09T17:39:44.959Z,79.15
2023-01-09T17:42:13.120Z,81.82
2023-01-09T17:44:40.249Z,81.43
2023-01-09T17:47:07.443Z,87.28
2023-01-09T17:49:34.659Z,98.35
2023-01-09T17:52:01.650Z,86.80
2023-01-09T17:54:28.925Z,91.82
2023-01-09T17:56:56.154Z,86.80
2023-01-09T17:59:23.037Z,92.30
2023-01-09T18:01:50.275Z,87.40
2023-01-09T18:04:17.583Z,93.13
2023-01-09T18:06:44.782Z,92.05
2023-01-09T18:09:16.138Z,88.57
2023-01-09T18:11:44.767Z,88.50
2023-01-09T18:14:13.830Z,78.10
2023-01-09T18:16:41.171Z,74.03
2023-01-09T18:19:09.284Z,74.43
2023-01-09T18:21:36.376Z,83.85
2023-01-09T18:24:03.496Z,78.93
2023-01-09T18:26:30.658Z,97.95
2023-01-09T18:28:59.475Z,97.82
2023-01-09T18:31:28.741Z,88.90
2023-01-09T18:33:57.652Z,84.22
2023-01-09T18:36:30.386Z,86.90
2023-01-09T18:38:59.504Z,73.88
2023-01-09T18:41:26.847Z,75.63
2023-01-09T18:43:55.914Z,74.88
2023-01-09T18:46:26.497Z,76.55
2023-01-09T18:48:57.845Z,82.32
2023-01-09T18:51:26.813Z,78.93
2023-01-09T18:53:55.061Z,76.25
2023-01-09T18:56:22.653Z,79.20
2023-01-09T18:58:49.860Z,83.75
2023-01-09T19:01:17.134Z,80.70
2023-01-09T19:03:45.337Z,77.70
2023-01-09T19:06:13.334Z,76.45
2023-01-09T19:08:40.685Z,73.57
2023-01-09T19:11:07.861Z,71.13
2023-01-09T19:13:36.662Z,70.50
2023-01-09T19:16:05.040Z,63.00
2023-01-09T19:18:37.401Z,66.47
2023-01-09T19:21:19.691Z,61.85
2023-01-09T19:23:47.545Z,63.53
2023-01-09T19:26:26.499Z,64.03
2023-01-09T19:28:55.598Z,61.47
2023-01-09T19:31:24.772Z,64.30
2023-01-09T19:33:53.737Z,66.55
2023-01-09T19:36:21.765Z,67.78
2023-01-09T19:38:48.964Z,66.03
2023-01-09T19:41:20.879Z,70.05
2023-01-09T19:43:48.068Z,66.13
2023-01-09T19:46:21.251Z,67.38
2023-01-09T19:48:48.587Z,68.38
2023-01-09T19:51:18.425Z,67.32
2023-01-09T19:53:46.159Z,65.72
2023-01-09T19:56:18.759Z,66.30
2023-01-09T19:58:54.073Z,65.70
2023-01-09T20:01:29.793Z,64.43
2023-01-09T20:03:57.853Z,69.20
2023-01-09T20:06:26.595Z,71.68
2023-01-09T20:08:55.995Z,69.05
2023-01-09T20:11:24.033Z,58.15
2023-01-09T20:13:51.277Z,48.38
2023-01-09T20:16:21.047Z,46.72
2023-01-09T20:18:48.462Z,43.35
2023-01-09T20:21:21.736Z,44.80
2023-01-09T20:23:50.067Z,42.53
2023-01-09T20:26:17.639Z,42.55
2023-01-09T20:28:45.167Z,41.58
2023-01-09T20:31:13.915Z,43.65
2023-01-09T20:33:41.094Z,39.28
2023-01-09T20:36:09.531Z,41.10
2023-01-09T20:38:37.408Z,38.97
2023-01-09T20:41:22.561Z,38.00
2023-01-09T20:43:55.851Z,38.28
2023-01-09T20:46:25.293Z,36.78
2023-01-09T20:48:55.717Z,39.22
2023-01-09T20:51:22.795Z,35.05
2023-01-09T20:53:55.834Z,37.58
2023-01-09T20:56:24.207Z,36.95
2023-01-09T20:58:52.471Z,37.08
2023-01-09T21:01:20.396Z,36.65
2023-01-09T21:03:47.684Z,36.40
2023-01-09T21:06:17.329Z,36.92
2023-01-09T21:08:47.115Z,35.47
2023-01-09T21:11:16.151Z,33.90
2023-01-09T21:13:43.417Z,32.85
2023-01-09T21:16:16.942Z,31.67
2023-01-09T21:18:44.582Z,31.15
2023-01-09T21:21:14.562Z,31.23
2023-01-09T21:24:04.625Z,31.33
2023-01-09T21:26:31.719Z,29.88
2023-01-09T21:29:00.907Z,29.13
2023-01-09T21:31:39.212Z,31.38
2023-01-09T21:34:07.811Z,30.60
2023-01-09T21:36:37.990Z,32.70
2023-01-09T21:39:08.150Z,32.33
2023-01-09T21:41:54.178Z,32.08
2023-01-09T21:44:39.788Z,32.72
2023-01-09T21:47:06.815Z,31.20
2023-01-09T21:49:35.386Z,34.63
2023-01-09T21:52:06.629Z,32.70
2023-01-09T21:54:34.420Z,32.38
2023-01-09T21:57:02.271Z,32.40
2023-01-09T21:59:29.260Z,32.67
2023-01-09T22:01:56.468Z,33.33
2023-01-09T22:04:26.355Z,33.88
2023-01-09T22:06:53.562Z,30.48
2023-01-09T22:09:20.898Z,28.92
2023-01-09T22:11:48.348Z,26.15
2023-01-09T22:14:17.961Z,26.85
2023-01-09T22:16:45.681Z,25.73
2023-01-09T22:19:13.681Z,28.15
2023-01-09T22:21:40.980Z,27.30
2023-01-09T22:24:08.161Z,26.23
2023-01-09T22:26:35.290Z,28.73
2023-01-09T22:29:02.548Z,23.90
2023-01-09T22:31:29.776Z,26.90
2023-01-09T22:33:58.556Z,24.63
2023-01-09T22:36:27.490Z,28.95
2023-01-09T22:38:56.089Z,25.73
2023-01-09T22:41:24.503Z,25.92
2023-01-09T22:43:51.901Z,26.38
2023-01-09T22:46:18.858Z,26.20
2023-01-09T22:48:45.997Z,26.08
2023-01-09T22:51:20.639Z,25.08
2023-01-09T22:53:48.136Z,24.48
2023-01-09T22:56:17.402Z,28.75
2023-01-09T22:58:44.902Z,26.80
2023-01-09T23:01:12.627Z,27.60
2023-01-09T23:03:40.086Z,27.63
2023-01-09T23:06:10.736Z,28.48
2023-01-09T23:08:37.878Z,25.73
2023-01-09T23:11:07.773Z,27.23
2023-01-09T23:13:35.001Z,26.45
2023-01-09T23:16:01.955Z,26.42
2023-01-09T23:18:29.091Z,28.52
2023-01-09T23:21:02.098Z,23.60
2023-01-09T23:23:30.909Z,25.35
2023-01-09T23:26:00.690Z,23.92
2023-01-09T23:28:28.297Z,24.98
2023-01-09T23:30:55.300Z,22.10
2023-01-09T23:33:22.279Z,23.63
2023-01-09T23:35:49.302Z,24.85
2023-01-09T23:38:16.288Z,22.85
2023-01-09T23:40:43.679Z,23.05
2023-01-09T23:43:11.792Z,21.77
